Time;durP1;ratioP1;P1;durP2;ratioP2;P2;SDS_P1;SDS_P2;PMS_P1;PMS_P2;Temp;Humidity;BMP_temperature;BMP_pressure;BME280_temperature;BME280_humidity;BME280_pressure;Samples;Min_cycle;Max_cycle;Signal;HPM_P1;HPM_P2
2022/04/21 00:03:00;;;;;;;;;39.20;33.00;;;;;12.14;44.72;98371.56;6312453;27;96737;-69
2022/04/21 00:06:03;;;;;;;;;42.20;33.00;;;;;12.18;44.69;98370.00;6315870;27;97369;-70
2022/04/21 00:09:08;;;;;;;;;39.75;33.00;;;;;12.21;44.74;98368.72;6291003;27;97743;-68
2022/04/21 00:12:12;;;;;;;;;40.00;33.00;;;;;12.24;44.60;98360.09;6298940;27;97182;-70
2022/04/21 00:15:15;;;;;;;;;41.00;35.00;;;;;12.19;44.64;98357.31;6336261;27;96653;-71
2022/04/21 00:18:18;;;;;;;;;41.00;33.60;;;;;12.29;44.15;98371.00;6314480;27;97618;-71
2022/04/21 00:23:25;;;;;;;;;36.20;32.00;;;;;12.32;44.45;98371.31;6305023;27;97760;-70
2022/04/21 00:24:45;;;;;;;;;45.00;35.00;;;;;12.36;44.36;98360.84;6297612;27;97056;-70
2022/04/21 00:27:49;;;;;;;;;42.00;36.00;;;;;12.34;44.30;98371.09;6319347;27;97514;-70
2022/04/21 00:30:53;;;;;;;;;41.50;34.50;;;;;12.33;44.42;98375.66;6314749;27;98339;-70
2022/04/21 00:33:57;;;;;;;;;39.60;34.60;;;;;12.27;44.55;98375.81;6290156;27;99121;-69
2022/04/21 00:37:00;;;;;;;;;43.00;35.00;;;;;12.27;44.54;98371.22;6313142;27;97433;-69
2022/04/21 00:40:06;;;;;;;;;43.80;35.00;;;;;12.20;44.65;98380.56;6315482;27;98346;-69
2022/04/21 00:43:10;;;;;;;;;39.40;34.80;;;;;12.06;44.69;98367.38;6295396;27;97165;-71
2022/04/21 00:46:18;;;;;;;;;44.40;36.00;;;;;12.06;44.88;98380.06;6302856;27;98432;-71
2022/04/21 00:49:22;;;;;;;;;41.20;34.00;;;;;12.03;45.03;98384.06;6314084;27;97902;-69
2022/04/21 00:52:26;;;;;;;;;45.00;35.00;;;;;11.99;45.08;98376.69;6320521;27;96948;-71
2022/04/21 00:55:32;;;;;;;;;43.00;34.50;;;;;12.02;44.92;98382.41;6339324;27;97486;-69
2022/04/21 00:58:38;;;;;;;;;45.40;35.00;;;;;11.94;44.93;98385.53;6321243;27;98428;-69
2022/04/21 01:05:03;;;;;;;;;45.80;36.00;;;;;11.78;45.13;98366.59;6314064;27;97385;-69
2022/04/21 01:08:08;;;;;;;;;45.00;36.00;;;;;11.61;45.26;98343.03;6340923;27;96856;-68
2022/04/21 01:11:13;;;;;;;;;41.40;34.40;;;;;11.82;45.44;98386.66;6297904;27;99790;-69
2022/04/21 01:14:16;;;;;;;;;41.60;33.80;;;;;11.81;45.46;98383.13;6328793;27;97638;-68
2022/04/21 01:17:31;;;;;;;;;45.40;33.60;;;;;11.79;45.24;98382.53;6314995;27;96433;-69
2022/04/21 01:20:36;;;;;;;;;38.80;33.00;;;;;11.76;45.44;98379.50;6312400;27;97453;-69
2022/04/21 01:23:39;;;;;;;;;41.60;32.60;;;;;11.65;45.52;98373.88;6278881;27;97043;-71
2022/04/21 01:26:46;;;;;;;;;42.40;34.00;;;;;11.77;45.56;98379.28;6295038;27;96929;-69
2022/04/21 01:29:49;;;;;;;;;42.67;35.00;;;;;11.79;45.50;98379.84;6319538;27;97593;-69
2022/04/21 01:32:53;;;;;;;;;37.00;33.40;;;;;11.78;45.38;98377.41;6338503;27;96983;-70
2022/04/21 01:35:57;;;;;;;;;38.25;33.50;;;;;11.79;45.49;98374.44;6318430;27;97394;-69
2022/04/21 01:42:21;;;;;;;;;42.00;34.60;;;;;11.69;45.80;98374.22;6321401;27;96586;-69
2022/04/21 01:45:24;;;;;;;;;41.60;33.60;;;;;11.70;45.71;98383.97;6318094;27;97500;-69
2022/04/21 01:48:27;;;;;;;;;37.75;33.00;;;;;11.63;45.89;98386.78;6314113;27;96867;-70
2022/04/21 01:51:32;;;;;;;;;39.40;34.20;;;;;11.70;45.82;98370.47;6305805;27;97503;-71
2022/04/21 01:54:35;;;;;;;;;44.60;35.00;;;;;11.70;45.87;98365.88;6339469;27;98130;-69
2022/04/21 01:57:39;;;;;;;;;47.00;36.00;;;;;11.68;45.90;98365.28;6312126;27;97154;-69
2022/04/21 02:00:42;;;;;;;;;43.80;35.00;;;;;11.61;46.38;98361.94;6313239;27;96753;-70
2022/04/21 02:03:45;;;;;;;;;45.00;35.75;;;;;11.63;45.99;98356.31;6320249;27;98338;-71
2022/04/21 02:06:50;;;;;;;;;45.00;38.00;;;;;11.56;46.26;98355.63;6312097;27;96849;-69
2022/04/21 02:09:53;;;;;;;;;47.00;38.00;;;;;11.58;46.54;98358.91;6311949;27;96890;-70
2022/04/21 02:12:56;;;;;;;;;46.20;36.00;;;;;11.53;46.37;98367.69;6293417;27;97221;-68
2022/04/21 02:15:59;;;;;;;;;45.00;36.00;;;;;11.54;46.46;98366.63;6323816;27;96694;-70
2022/04/21 02:19:03;;;;;;;;;45.00;36.00;;;;;11.52;46.41;98370.66;6319733;27;96394;-69
2022/04/21 02:22:08;;;;;;;;;48.40;38.00;;;;;11.49;46.47;98363.03;6335747;27;96886;-69
2022/04/21 02:25:12;;;;;;;;;50.00;39.20;;;;;11.50;46.64;98364.66;6318561;27;101130;-69
2022/04/21 02:28:15;;;;;;;;;49.50;39.00;;;;;11.47;46.69;98367.84;6302565;27;98411;-69
2022/04/21 02:31:18;;;;;;;;;50.40;38.00;;;;;11.30;46.79;98347.00;6294776;27;99866;-69
2022/04/21 02:34:22;;;;;;;;;47.00;36.25;;;;;11.42;46.87;98363.19;6324059;27;99594;-69
2022/04/21 02:37:27;;;;;;;;;44.00;37.20;;;;;11.39;46.70;98354.72;6338915;27;98178;-69
2022/04/21 02:40:30;;;;;;;;;46.00;38.60;;;;;11.38;46.92;98358.50;6337927;27;96928;-68
2022/04/21 02:43:34;;;;;;;;;49.00;37.60;;;;;11.32;47.11;98359.44;6335851;27;97508;-70
2022/04/21 02:46:38;;;;;;;;;45.00;36.00;;;;;11.34;47.01;98377.03;6314183;27;97306;-69
2022/04/21 02:49:45;;;;;;;;;46.00;36.00;;;;;11.32;46.92;98375.63;6304734;27;97523;-69
2022/04/21 02:52:51;;;;;;;;;44.00;35.00;;;;;11.31;46.82;98353.22;6339055;27;96970;-69
2022/04/21 02:59:16;;;;;;;;;39.40;33.20;;;;;11.40;46.50;98353.66;6322734;27;97062;-70
2022/04/21 03:02:20;;;;;;;;;40.80;32.40;;;;;11.34;46.51;98357.34;6321073;27;96689;-70
2022/04/21 03:05:24;;;;;;;;;37.80;33.00;;;;;11.34;46.69;98358.13;6292838;27;96993;-69
2022/04/21 03:08:28;;;;;;;;;41.20;33.20;;;;;11.41;46.47;98349.91;6276003;27;98519;-69
2022/04/21 03:11:31;;;;;;;;;44.00;35.00;;;;;11.43;46.21;98348.63;6327452;27;96983;-69
2022/04/21 03:14:35;;;;;;;;;37.25;33.00;;;;;11.43;46.29;98354.03;6337341;27;96889;-70
2022/04/21 03:17:39;;;;;;;;;39.00;33.00;;;;;11.41;46.24;98342.63;6317192;27;98517;-70
2022/04/21 03:24:21;;;;;;;;;41.60;34.00;;;;;11.44;46.14;98341.31;6210487;27;96858;-70
2022/04/21 03:27:25;;;;;;;;;42.20;35.20;;;;;11.42;46.21;98346.16;6295635;27;96733;-71
2022/04/21 03:30:29;;;;;;;;;44.50;34.50;;;;;11.40;46.33;98338.28;6336144;27;97375;-68
2022/04/21 03:33:32;;;;;;;;;38.00;32.00;;;;;11.39;46.20;98347.44;6315796;27;96914;-70
2022/04/21 03:36:35;;;;;;;;;39.20;33.00;;;;;11.39;46.22;98344.75;6326511;27;98007;-69
2022/04/21 03:39:41;;;;;;;;;42.20;33.40;;;;;11.41;46.13;98355.31;6308926;27;96899;-70
2022/04/21 03:42:44;;;;;;;;;44.20;33.40;;;;;11.43;46.04;98347.81;6315377;27;97109;-70
2022/04/21 03:45:47;;;;;;;;;39.20;33.60;;;;;11.42;46.16;98352.38;6332342;27;98458;-70
2022/04/21 03:48:50;;;;;;;;;43.75;34.00;;;;;11.44;46.00;98349.41;6309766;27;98507;-70
2022/04/21 03:51:54;;;;;;;;;41.00;33.00;;;;;11.46;46.22;98368.91;6326625;27;97754;-71
2022/04/21 03:54:58;;;;;;;;;41.50;33.00;;;;;11.47;45.90;98359.75;6335863;27;96711;-69
2022/04/21 03:58:01;;;;;;;;;41.50;34.00;;;;;11.49;45.85;98358.44;6326206;27;96552;-70
2022/04/21 04:01:05;;;;;;;;;40.60;33.00;;;;;11.50;45.94;98362.78;6330739;27;96663;-71
2022/04/21 04:04:09;;;;;;;;;40.80;33.00;;;;;11.49;45.76;98361.16;6309920;27;97418;-68
2022/04/21 04:13:51;;;;;;;;;45.00;34.00;;;;;11.45;45.85;98356.47;6328577;27;97134;-70
2022/04/21 04:16:55;;;;;;;;;36.50;32.00;;;;;11.46;45.78;98356.25;6339380;27;97473;-69
2022/04/21 04:19:58;;;;;;;;;40.00;33.00;;;;;11.45;45.69;98351.06;6334421;27;98120;-69
2022/04/21 04:23:01;;;;;;;;;41.50;32.00;;;;;11.56;45.42;98359.13;6336419;27;97974;-69
2022/04/21 04:26:06;;;;;;;;;38.20;32.00;;;;;11.55;45.40;98365.59;6302452;27;97411;-69
2022/04/21 04:29:10;;;;;;;;;40.75;32.50;;;;;11.58;45.45;98364.31;6321926;27;97241;-70
2022/04/21 04:32:15;;;;;;;;;35.40;31.80;;;;;11.58;45.16;98362.41;6312331;27;97934;-69
2022/04/21 04:35:19;;;;;;;;;36.60;32.00;;;;;11.58;45.37;98365.09;6296281;27;97773;-71
2022/04/21 04:38:22;;;;;;;;;37.40;32.00;;;;;11.56;45.25;98361.84;6328969;27;97470;-70
2022/04/21 04:44:49;;;;;;;;;40.00;33.00;;;;;11.55;45.33;98362.88;6337277;27;97321;-70
2022/04/21 04:47:51;;;;;;;;;37.40;32.80;;;;;11.56;45.49;98361.00;6306608;27;97327;-69
2022/04/21 04:50:54;;;;;;;;;33.00;31.00;;;;;11.55;45.46;98368.28;6328976;27;97085;-68
2022/04/21 04:53:58;;;;;;;;;41.40;33.00;;;;;11.55;45.34;98364.75;6330754;27;97385;-70
2022/04/21 04:57:02;;;;;;;;;35.50;32.00;;;;;11.56;45.49;98367.22;6311205;27;97213;-68
2022/04/21 05:00:08;;;;;;;;;42.00;35.00;;;;;11.51;45.41;98353.63;6326151;27;96941;-69
2022/04/21 05:03:12;;;;;;;;;40.00;32.80;;;;;11.53;45.44;98356.91;6338386;27;97258;-69
2022/04/21 05:06:15;;;;;;;;;36.40;32.00;;;;;11.64;45.46;98360.63;6323866;27;97870;-70
2022/04/21 05:09:22;;;;;;;;;40.00;33.00;;;;;11.68;45.23;98365.28;6337687;27;97380;-70
2022/04/21 05:12:27;;;;;;;;;41.40;33.40;;;;;11.71;45.16;98366.69;6321680;27;96559;-70
2022/04/21 05:15:30;;;;;;;;;39.50;32.25;;;;;11.70;45.39;98359.66;6339285;27;96894;-70
2022/04/21 05:18:34;;;;;;;;;41.00;33.25;;;;;11.73;45.22;98361.09;6308951;27;96663;-68
2022/04/21 05:21:39;;;;;;;;;43.00;33.20;;;;;11.83;44.99;98362.09;6331849;27;97715;-70
2022/04/21 05:24:46;;;;;;;;;40.00;33.40;;;;;11.87;44.95;98365.16;6288564;27;99573;-69
2022/04/21 05:27:51;;;;;;;;;45.00;35.00;;;;;12.01;44.63;98366.47;6326567;27;96425;-69
2022/04/21 05:31:00;;;;;;;;;47.40;35.00;;;;;12.09;44.60;98369.59;6313068;27;96820;-70
2022/04/21 05:34:04;;;;;;;;;39.00;33.00;;;;;12.13;44.09;98373.44;6302258;27;98374;-70
2022/04/21 05:37:08;;;;;;;;;36.60;33.00;;;;;12.24;44.19;98368.22;6337955;27;96814;-70
2022/04/21 05:40:19;;;;;;;;;37.40;33.00;;;;;12.24;43.92;98365.50;6332617;27;97501;-70
2022/04/21 05:43:30;;;;;;;;;43.25;35.00;;;;;12.21;44.06;98366.81;6320628;27;96625;-71
2022/04/21 05:46:34;;;;;;;;;42.00;32.75;;;;;12.31;43.90;98363.47;6320051;27;97501;-69
2022/04/21 05:49:38;;;;;;;;;39.00;33.00;;;;;12.34;44.03;98365.69;6338911;27;98032;-70
2022/04/21 05:52:44;;;;;;;;;40.00;33.50;;;;;12.42;43.97;98365.25;6319971;27;98351;-69
2022/04/21 05:55:47;;;;;;;;;38.20;32.00;;;;;12.50;43.62;98368.38;6319189;27;96663;-70
2022/04/21 05:58:52;;;;;;;;;38.75;33.25;;;;;12.59;43.49;98369.59;6312933;27;97398;-70
2022/04/21 06:01:55;;;;;;;;;41.00;33.60;;;;;12.46;44.07;98369.13;6313318;27;97410;-69
2022/04/21 06:04:59;;;;;;;;;40.25;34.00;;;;;12.64;43.72;98370.75;6313659;27;97903;-70
2022/04/21 06:08:02;;;;;;;;;41.00;33.20;;;;;12.79;43.48;98370.97;6314095;27;97468;-70
2022/04/21 06:11:06;;;;;;;;;40.00;34.00;;;;;12.75;43.37;98361.72;6295463;27;97110;-70
2022/04/21 06:14:10;;;;;;;;;41.40;33.20;;;;;12.94;43.32;98371.19;6297108;27;97479;-69
2022/04/21 06:17:14;;;;;;;;;40.80;33.00;;;;;13.03;42.87;98367.81;6319948;27;97284;-70
2022/04/21 06:20:17;;;;;;;;;39.00;34.00;;;;;12.96;43.03;98342.81;6339360;27;96390;-70
2022/04/21 06:23:21;;;;;;;;;42.60;34.60;;;;;12.99;42.64;98369.38;6319973;27;98501;-70
2022/04/21 06:26:25;;;;;;;;;38.40;33.40;;;;;13.09;42.72;98365.19;6316665;27;96348;-70
2022/04/21 06:29:30;;;;;;;;;39.00;33.00;;;;;13.24;42.46;98366.19;6276564;27;99681;-70
2022/04/21 06:32:34;;;;;;;;;40.00;32.60;;;;;13.36;42.40;98366.09;6295200;27;98269;-70
2022/04/21 06:35:38;;;;;;;;;40.33;33.00;;;;;13.44;42.51;98362.94;6311589;27;96865;-70
2022/04/21 06:38:42;;;;;;;;;38.00;32.25;;;;;13.69;42.07;98351.56;6339467;27;96483;-70
2022/04/21 06:41:45;;;;;;;;;40.60;35.00;;;;;13.77;41.58;98353.84;6339196;27;96431;-70
2022/04/21 06:48:16;;;;;;;;;37.40;32.00;;;;;14.20;41.03;98355.59;6338955;27;97308;-70
2022/04/21 06:51:20;;;;;;;;;37.20;33.00;;;;;14.44;40.87;98354.22;6314490;27;96410;-69
2022/04/21 06:54:23;;;;;;;;;38.00;32.00;;;;;14.65;40.22;98361.44;6318280;27;97572;-70
2022/04/21 06:57:26;;;;;;;;;42.00;33.80;;;;;14.50;40.23;98341.50;6319639;27;96467;-69
2022/04/21 07:00:31;;;;;;;;;43.80;34.80;;;;;14.85;40.08;98368.91;6338832;27;97457;-69
2022/04/21 07:03:35;;;;;;;;;37.00;32.00;;;;;14.98;40.25;98351.31;6339269;27;97467;-70
2022/04/21 07:06:38;;;;;;;;;33.60;30.00;;;;;15.05;39.69;98374.41;6337840;27;96393;-71
2022/04/21 07:09:42;;;;;;;;;29.00;26.00;;;;;15.30;39.55;98381.06;6297489;27;98741;-71
2022/04/21 07:12:46;;;;;;;;;29.20;26.20;;;;;15.47;39.58;98373.56;6313196;27;97425;-70
2022/04/21 07:15:51;;;;;;;;;30.00;28.00;;;;;15.58;38.95;98381.53;6312116;27;96748;-71
2022/04/21 07:18:55;;;;;;;;;25.20;24.20;;;;;15.73;38.59;98382.66;6312978;27;97830;-70
2022/04/21 07:21:58;;;;;;;;;26.00;24.00;;;;;15.61;38.62;98380.16;6319162;27;97438;-69
2022/04/21 07:25:04;;;;;;;;;20.60;19.60;;;;;15.60;38.70;98386.66;6338001;27;97489;-70
2022/04/21 07:28:08;;;;;;;;;27.80;25.80;;;;;15.68;38.79;98380.75;6338957;27;97509;-71
2022/04/21 07:31:13;;;;;;;;;27.20;23.00;;;;;15.62;38.83;98389.13;6319650;27;98443;-69
2022/04/21 07:34:17;;;;;;;;;29.60;25.60;;;;;15.73;38.65;98382.66;6337728;27;97524;-68
2022/04/21 07:37:21;;;;;;;;;29.00;27.00;;;;;15.72;38.40;98391.88;6336773;27;96551;-70
2022/04/21 07:40:24;;;;;;;;;27.00;24.20;;;;;15.65;38.74;98392.13;6318261;27;97795;-69
2022/04/21 07:43:28;;;;;;;;;27.00;25.50;;;;;15.75;38.65;98386.72;6319617;27;97031;-69
2022/04/21 07:46:33;;;;;;;;;28.80;25.00;;;;;15.90;38.37;98388.66;6338250;27;97060;-70
2022/04/21 07:49:49;;;;;;;;;33.00;29.00;;;;;16.14;38.39;98389.81;6317909;27;96600;-69
2022/04/21 07:56:12;;;;;;;;;30.40;29.00;;;;;16.24;37.89;98397.16;6312833;27;97463;-68
2022/04/21 07:59:16;;;;;;;;;29.00;27.00;;;;;16.40;37.59;98399.63;6294136;27;97425;-69
2022/04/21 08:02:20;;;;;;;;;30.60;25.40;;;;;16.60;36.80;98406.19;6312791;27;97111;-69
2022/04/21 08:05:24;;;;;;;;;29.00;24.60;;;;;16.79;36.39;98404.56;6312479;27;96498;-69
2022/04/21 08:08:27;;;;;;;;;27.00;24.50;;;;;16.85;35.74;98401.56;6281433;27;97377;-69
2022/04/21 08:11:31;;;;;;;;;26.80;23.40;;;;;16.81;35.78;98407.84;6337316;27;96713;-70
2022/04/21 08:14:35;;;;;;;;;26.00;24.00;;;;;16.54;35.21;98401.81;6301414;27;97566;-70
2022/04/21 08:17:40;;;;;;;;;28.00;24.00;;;;;16.58;35.68;98408.34;6337147;27;97532;-71
2022/04/21 08:20:44;;;;;;;;;27.40;22.40;;;;;16.72;35.56;98414.91;6318114;27;97382;-70
2022/04/21 08:23:47;;;;;;;;;25.00;23.80;;;;;16.92;35.14;98397.72;6337917;27;97461;-69
2022/04/21 08:33:53;;;;;;;;;26.60;24.60;;;;;17.26;34.43;98396.84;6312107;27;96393;-69
2022/04/21 08:36:57;;;;;;;;;25.00;23.20;;;;;17.36;33.97;98390.56;6312994;27;98039;-69
2022/04/21 08:40:00;;;;;;;;;27.50;25.00;;;;;17.61;33.99;98384.22;6322874;27;97348;-70
2022/04/21 08:43:14;;;;;;;;;23.00;22.00;;;;;17.79;32.54;98380.06;6321528;27;98527;-70
2022/04/21 08:46:20;;;;;;;;;27.00;21.00;;;;;18.01;32.43;98381.28;6320721;27;98556;-68
2022/04/21 08:49:33;;;;;;;;;24.20;22.60;;;;;18.63;31.70;98377.03;6337440;27;97550;-69
2022/04/21 08:52:36;;;;;;;;;24.00;21.80;;;;;19.30;30.18;98369.84;6335952;27;97394;-70
2022/04/21 08:55:40;;;;;;;;;25.00;21.00;;;;;19.89;29.50;98377.56;6341098;27;97547;-69
2022/04/21 08:58:44;;;;;;;;;21.75;20.00;;;;;20.19;28.25;98377.16;6328948;27;96579;-69
2022/04/21 09:01:47;;;;;;;;;22.20;19.20;;;;;20.42;27.20;98372.75;6336498;27;96675;-69
2022/04/21 09:04:52;;;;;;;;;26.00;22.00;;;;;20.75;27.35;98366.16;6321242;27;97815;-71
2022/04/21 09:07:55;;;;;;;;;24.40;22.20;;;;;21.10;27.37;98374.84;6298819;27;97790;-69
2022/04/21 09:11:22;;;;;;;;;22.00;20.00;;;;;21.35;27.18;98371.66;6315543;27;96527;-69
2022/04/21 09:14:25;;;;;;;;;26.00;24.00;;;;;21.49;27.63;98364.25;6312964;27;97771;-69
2022/04/21 09:17:32;;;;;;;;;26.20;22.60;;;;;21.37;27.37;98363.94;6340797;27;97492;-71
2022/04/21 09:20:37;;;;;;;;;25.60;24.00;;;;;21.54;26.86;98355.91;6340609;27;96550;-69
2022/04/21 09:23:40;;;;;;;;;28.00;24.00;;;;;21.76;26.01;98355.16;6322529;27;97561;-69
2022/04/21 09:26:45;;;;;;;;;23.50;21.50;;;;;21.78;26.23;98358.44;6322664;27;97403;-71
2022/04/21 09:29:50;;;;;;;;;22.60;20.60;;;;;21.77;25.72;98354.06;6322774;27;97258;-70
2022/04/21 09:32:55;;;;;;;;;24.00;21.00;;;;;22.04;25.77;98354.00;6340693;27;97434;-71
2022/04/21 09:36:01;;;;;;;;;18.00;16.60;;;;;21.87;25.04;98353.03;6319278;27;96708;-71
2022/04/21 09:39:05;;;;;;;;;20.00;18.00;;;;;21.58;25.17;98350.63;6313400;27;97094;-71
2022/04/21 09:42:09;;;;;;;;;20.60;18.40;;;;;21.73;25.32;98347.56;6330632;27;96214;-72
2022/04/21 09:48:34;;;;;;;;;19.00;17.00;;;;;22.02;25.30;98349.97;6340401;27;96677;-72
2022/04/21 09:51:38;;;;;;;;;15.60;13.60;;;;;22.01;25.00;98351.91;6330928;27;97184;-72
2022/04/21 09:54:45;;;;;;;;;23.00;20.00;;;;;22.05;25.31;98352.09;6310407;27;99578;-71
2022/04/21 09:57:51;;;;;;;;;22.20;20.20;;;;;22.02;25.52;98339.81;6317844;27;96768;-72
2022/04/21 10:00:55;;;;;;;;;24.00;21.00;;;;;21.81;25.26;98355.06;6319744;27;98004;-71
2022/04/21 10:03:58;;;;;;;;;23.40;19.40;;;;;21.69;25.95;98351.22;6318950;27;99265;-72
2022/04/21 10:07:04;;;;;;;;;21.50;21.25;;;;;21.73;25.87;98341.25;6338037;27;97042;-72
2022/04/21 10:10:08;;;;;;;;;20.80;20.00;;;;;22.13;25.57;98340.38;6298453;27;97629;-72
2022/04/21 10:13:12;;;;;;;;;23.40;20.00;;;;;22.41;25.33;98336.41;6337425;27;96697;-72
2022/04/21 10:16:16;;;;;;;;;21.25;19.25;;;;;22.39;25.77;98341.38;6334950;27;97704;-72
2022/04/21 10:19:23;;;;;;;;;20.40;18.60;;;;;22.62;25.29;98341.41;6319388;27;97435;-72
2022/04/21 10:22:28;;;;;;;;;22.80;20.00;;;;;22.62;25.55;98335.91;6336433;27;98121;-72
2022/04/21 10:25:37;;;;;;;;;18.00;15.80;;;;;22.86;24.79;98339.97;6294512;27;98084;-72
2022/04/21 10:28:42;;;;;;;;;18.60;16.00;;;;;22.90;23.95;98340.16;6278023;27;98555;-71
2022/04/21 10:31:49;;;;;;;;;20.50;20.50;;;;;23.00;24.19;98339.06;6311982;27;98699;-71
2022/04/21 10:34:56;;;;;;;;;23.00;18.50;;;;;22.99;24.18;98346.50;6314355;27;97702;-71
2022/04/21 10:38:31;;;;;;;;;18.50;18.00;;;;;23.00;24.48;98328.88;6337009;27;96519;-72
2022/04/21 10:41:39;;;;;;;;;20.00;17.00;;;;;22.59;24.25;98331.03;6339818;27;97640;-72
2022/04/21 10:44:51;;;;;;;;;15.40;14.40;;;;;22.33;24.17;98342.63;6314269;27;99510;-72
2022/04/21 10:48:05;;;;;;;;;15.00;14.00;;;;;22.18;24.96;98334.78;6339770;27;96594;-72
2022/04/21 10:51:09;;;;;;;;;12.40;11.00;;;;;22.10;24.96;98331.94;6338085;27;97569;-72
2022/04/21 10:57:48;;;;;;;;;19.40;16.40;;;;;21.89;25.77;98326.09;6213711;28;97600;-72
2022/04/21 11:01:10;;;;;;;;;19.50;18.00;;;;;21.76;25.99;98325.00;6195843;28;98496;-71
2022/04/21 11:04:19;;;;;;;;;20.20;18.20;;;;;21.55;26.32;98319.13;6213332;28;96815;-73
2022/04/21 11:07:51;;;;;;;;;17.00;14.50;;;;;21.46;25.90;98336.59;6232383;28;96769;-73
2022/04/21 11:10:54;;;;;;;;;14.20;12.80;;;;;21.35;26.33;98330.53;6231152;28;97600;-72
2022/04/21 11:14:07;;;;;;;;;16.00;12.40;;;;;21.33;25.80;98332.75;6233048;28;98215;-71
2022/04/21 11:17:11;;;;;;;;;12.00;10.00;;;;;21.57;25.70;98329.78;6232735;27;98114;-73
2022/04/21 11:20:26;;;;;;;;;14.60;12.00;;;;;21.86;25.64;98324.75;6213196;28;97955;-72
2022/04/21 11:24:03;;;;;;;;;12.00;11.00;;;;;21.71;25.28;98311.38;6226470;27;96799;-71
2022/04/21 11:27:13;;;;;;;;;13.00;13.00;;;;;21.84;24.64;98316.03;6234373;27;96994;-71
2022/04/21 11:30:19;;;;;;;;;9.00;8.00;;;;;21.88;25.42;98317.03;6297333;27;98691;-72
2022/04/21 11:33:22;;;;;;;;;12.40;11.00;;;;;21.81;25.11;98316.66;6317312;27;98318;-71
2022/04/21 11:36:36;;;;;;;;;9.40;9.40;;;;;21.83;24.62;98299.88;6333922;27;96982;-68
2022/04/21 11:39:39;;;;;;;;;10.00;9.00;;;;;22.02;25.75;98306.88;6300841;27;97052;-71
2022/04/21 11:42:43;;;;;;;;;9.00;7.00;;;;;22.07;25.11;98310.63;6329321;27;96758;-71
2022/04/21 11:45:59;;;;;;;;;9.40;9.40;;;;;22.04;24.69;98310.09;6315981;27;98065;-72
2022/04/21 11:49:03;;;;;;;;;11.00;10.00;;;;;22.08;24.86;98307.56;6331882;27;96766;-75
2022/04/21 11:52:07;;;;;;;;;10.40;10.00;;;;;22.12;24.75;98305.81;6335009;27;97636;-72
2022/04/21 11:55:12;;;;;;;;;11.00;10.00;;;;;22.06;24.97;98304.31;6331247;27;97477;-71
2022/04/21 11:58:27;;;;;;;;;9.00;9.00;;;;;21.94;24.88;98295.81;6315897;27;97038;-71
2022/04/21 12:08:13;;;;;;;;;8.00;8.00;;;;;21.89;25.13;98304.13;6332865;27;96699;-73
2022/04/21 12:11:19;;;;;;;;;9.00;8.40;;;;;21.77;25.34;98312.09;6331747;27;97146;-72
2022/04/21 12:14:23;;;;;;;;;11.00;10.00;;;;;21.43;25.30;98305.13;6317910;27;99507;-73
2022/04/21 12:17:33;;;;;;;;;12.00;10.00;;;;;21.30;26.00;98307.88;6337292;27;97431;-71
2022/04/21 12:20:53;;;;;;;;;12.25;10.25;;;;;21.09;26.05;98308.25;6314178;27;97961;-71
2022/04/21 12:23:56;;;;;;;;;12.60;10.60;;;;;20.99;26.14;98302.16;6338627;27;97154;-72
2022/04/21 12:27:01;;;;;;;;;14.80;11.80;;;;;20.65;26.27;98266.91;6320714;27;97119;-72
2022/04/21 12:30:07;;;;;;;;;10.80;9.80;;;;;20.81;26.38;98292.91;6334843;27;96913;-73
2022/04/21 12:33:11;;;;;;;;;12.00;11.00;;;;;20.71;26.32;98293.91;6337127;27;96951;-72
2022/04/21 12:36:16;;;;;;;;;11.60;10.20;;;;;20.39;26.23;98287.63;6320051;27;98356;-73
2022/04/21 12:39:20;;;;;;;;;13.60;12.00;;;;;20.49;27.20;98298.41;6318708;27;96803;-73
2022/04/21 12:42:45;;;;;;;;;16.00;14.40;;;;;20.47;27.39;98306.13;6336963;27;97414;-71
2022/04/21 12:45:49;;;;;;;;;15.00;14.00;;;;;20.53;27.23;98300.25;6339603;27;96547;-72
2022/04/21 12:48:54;;;;;;;;;14.00;13.40;;;;;20.55;27.00;98303.50;6338503;27;97400;-72
2022/04/21 12:51:58;;;;;;;;;16.00;12.80;;;;;20.61;27.57;98302.31;6339597;27;97064;-71
2022/04/21 12:55:03;;;;;;;;;12.00;12.00;;;;;20.65;27.34;98303.34;6320677;27;98074;-72
2022/04/21 12:58:09;;;;;;;;;14.00;13.00;;;;;20.68;27.21;98301.91;6321158;27;97281;-72
2022/04/21 13:01:12;;;;;;;;;15.00;13.40;;;;;20.72;27.03;98300.22;6319080;27;98431;-71
2022/04/21 13:04:18;;;;;;;;;16.80;15.00;;;;;20.72;27.46;98311.16;6319717;27;97537;-72
2022/04/21 13:07:22;;;;;;;;;18.20;15.20;;;;;20.62;27.72;98303.91;6319846;27;97766;-71
2022/04/21 13:10:26;;;;;;;;;17.60;16.00;;;;;20.64;28.04;98307.19;6338009;27;97988;-72
2022/04/21 13:13:29;;;;;;;;;18.80;17.00;;;;;20.46;28.30;98291.63;6319692;27;97511;-73
2022/04/21 13:16:33;;;;;;;;;20.60;17.40;;;;;20.60;28.55;98316.31;6335328;27;96772;-72
2022/04/21 13:19:39;;;;;;;;;20.00;18.00;;;;;20.53;28.98;98313.13;6335781;27;97484;-70
2022/04/21 13:22:42;;;;;;;;;20.00;19.00;;;;;20.50;29.17;98317.28;6333500;27;97420;-71
2022/04/21 13:25:45;;;;;;;;;24.00;20.00;;;;;20.43;29.45;98314.13;6334684;27;98095;-72
2022/04/21 13:28:49;;;;;;;;;21.00;18.00;;;;;20.24;29.52;98316.03;6318361;27;98473;-73
2022/04/21 13:35:14;;;;;;;;;22.00;19.60;;;;;19.94;30.17;98313.78;6337007;27;97291;-73
2022/04/21 13:38:18;;;;;;;;;21.00;19.50;;;;;19.71;30.02;98307.28;6320418;27;97379;-71
2022/04/21 13:41:22;;;;;;;;;21.00;19.00;;;;;19.66;30.20;98319.09;6318247;27;97462;-72
2022/04/21 13:44:25;;;;;;;;;22.50;19.50;;;;;19.58;30.44;98317.03;6318038;27;97200;-71
2022/04/21 13:47:49;;;;;;;;;19.00;18.00;;;;;19.57;31.03;98320.84;6334796;27;96622;-73
2022/04/21 13:50:53;;;;;;;;;21.00;18.00;;;;;19.53;30.47;98325.28;6312991;27;96277;-71
2022/04/21 13:53:57;;;;;;;;;18.00;16.20;;;;;19.50;30.29;98328.59;6339240;27;97487;-71
2022/04/21 13:57:03;;;;;;;;;23.00;19.00;;;;;19.49;30.63;98324.25;6321399;27;96579;-71
2022/04/21 14:00:07;;;;;;;;;20.00;18.00;;;;;19.14;30.65;98283.66;6328954;27;97414;-72
2022/04/21 14:03:12;;;;;;;;;22.75;21.75;;;;;19.46;30.27;98331.09;6294288;27;97567;-72
2022/04/21 14:06:17;;;;;;;;;20.80;19.00;;;;;19.38;31.00;98318.06;6297864;27;97242;-71
2022/04/21 14:09:21;;;;;;;;;22.00;20.00;;;;;19.36;31.09;98327.66;6313786;27;96885;-71
2022/04/21 14:12:24;;;;;;;;;21.20;20.00;;;;;19.30;31.20;98324.16;6312566;27;96410;-71
2022/04/21 14:15:28;;;;;;;;;19.20;18.00;;;;;18.99;31.40;98311.97;6294254;27;97279;-72
2022/04/21 14:18:32;;;;;;;;;19.20;18.00;;;;;19.07;31.75;98326.91;6295624;27;99079;-72
2022/04/21 14:21:37;;;;;;;;;22.40;20.00;;;;;19.05;31.48;98329.94;6310052;27;96845;-72
2022/04/21 14:24:40;;;;;;;;;23.60;22.60;;;;;18.95;31.68;98322.69;6310154;27;98162;-72
2022/04/21 14:27:43;;;;;;;;;21.75;19.00;;;;;18.38;31.74;98241.56;6309447;27;97449;-71
2022/04/21 14:30:47;;;;;;;;;22.00;18.00;;;;;18.88;31.84;98321.38;6287071;27;97769;-72
2022/04/21 14:33:51;;;;;;;;;19.00;18.00;;;;;18.88;31.87;98330.38;6285314;27;96692;-71
2022/04/21 14:36:57;;;;;;;;;21.40;18.00;;;;;18.71;31.92;98312.81;6310916;27;97007;-71
2022/04/21 14:46:44;;;;;;;;;21.00;18.00;;;;;18.66;32.30;98321.06;6308503;27;96589;-70
2022/04/21 14:50:08;;;;;;;;;19.40;19.00;;;;;18.57;32.39;98329.84;6309956;27;97657;-72
2022/04/21 14:53:13;;;;;;;;;19.80;17.00;;;;;18.46;32.87;98325.56;6310103;27;97062;-69
2022/04/21 14:56:16;;;;;;;;;20.50;18.50;;;;;18.45;33.26;98334.03;6305679;27;97418;-71
2022/04/21 14:59:26;;;;;;;;;21.40;18.00;;;;;18.37;33.81;98340.94;6302310;27;96692;-70
2022/04/21 15:02:29;;;;;;;;;18.00;16.00;;;;;18.30;34.29;98332.25;6288853;27;97287;-71
2022/04/21 15:05:33;;;;;;;;;19.60;18.60;;;;;18.26;34.32;98327.66;6307321;27;96658;-70
2022/04/21 15:08:38;;;;;;;;;18.80;18.00;;;;;18.18;34.81;98331.78;6307338;27;97207;-70
2022/04/21 15:11:43;;;;;;;;;19.20;17.20;;;;;18.05;34.44;98329.72;6306738;27;97156;-71
2022/04/21 15:14:47;;;;;;;;;19.75;18.00;;;;;17.98;34.92;98337.41;6300073;27;98466;-72